sensor_id;sensor_type;location;lat;lon;timestamp;temperature;humidity
43858;DHT22;29507;51.284;5.758;2022-09-14T00:01:32;15.50;99.90
43858;DHT22;29507;51.284;5.758;2022-09-14T00:04:11;15.50;99.90
43858;DHT22;29507;51.284;5.758;2022-09-14T00:06:37;15.50;99.90
43858;DHT22;29507;51.284;5.758;2022-09-14T00:09:04;15.50;99.90
43858;DHT22;29507;51.284;5.758;2022-09-14T00:11:34;15.40;99.90
43858;DHT22;29507;51.284;5.758;2022-09-14T00:14:01;15.40;99.90
43858;DHT22;29507;51.284;5.758;2022-09-14T00:16:31;15.30;99.90
43858;DHT22;29507;51.284;5.758;2022-09-14T00:19:00;15.30;99.90
43858;DHT22;29507;51.284;5.758;2022-09-14T00:21:30;15.20;99.90
43858;DHT22;29507;51.284;5.758;2022-09-14T00:23:56;15.20;99.90
43858;DHT22;29507;51.284;5.758;2022-09-14T00:26:22;15.30;99.90
43858;DHT22;29507;51.284;5.758;2022-09-14T00:28:50;15.30;99.90
43858;DHT22;29507;51.284;5.758;2022-09-14T00:31:17;15.30;99.90
43858;DHT22;29507;51.284;5.758;2022-09-14T00:33:44;15.20;99.90
43858;DHT22;29507;51.284;5.758;2022-09-14T00:36:14;15.20;99.90
43858;DHT22;29507;51.284;5.758;2022-09-14T00:38:40;15.20;99.90
43858;DHT22;29507;51.284;5.758;2022-09-14T00:41:12;15.20;99.90
43858;DHT22;29507;51.284;5.758;2022-09-14T00:46:25;15.20;99.90
43858;DHT22;29507;51.284;5.758;2022-09-14T00:48:51;15.20;99.90
43858;DHT22;29507;51.284;5.758;2022-09-14T00:51:18;15.20;99.90
43858;DHT22;29507;51.284;5.758;2022-09-14T00:53:45;15.20;99.90
43858;DHT22;29507;51.284;5.758;2022-09-14T00:56:11;15.20;99.90
43858;DHT22;29507;51.284;5.758;2022-09-14T00:58:37;15.20;99.90
43858;DHT22;29507;51.284;5.758;2022-09-14T01:01:02;15.20;99.90
43858;DHT22;29507;51.284;5.758;2022-09-14T01:03:28;15.10;99.90
43858;DHT22;29507;51.284;5.758;2022-09-14T01:09:06;15.10;99.90
43858;DHT22;29507;51.284;5.758;2022-09-14T01:14:30;15.10;99.90
43858;DHT22;29507;51.284;5.758;2022-09-14T01:17:17;15.10;99.90
43858;DHT22;29507;51.284;5.758;2022-09-14T01:22:35;15.00;99.90
43858;DHT22;29507;51.284;5.758;2022-09-14T01:28:08;14.90;99.90
43858;DHT22;29507;51.284;5.758;2022-09-14T01:30:36;14.80;99.90
43858;DHT22;29507;51.284;5.758;2022-09-14T01:33:13;14.90;99.90
43858;DHT22;29507;51.284;5.758;2022-09-14T01:35:45;14.80;99.90
43858;DHT22;29507;51.284;5.758;2022-09-14T01:38:24;14.80;99.90
43858;DHT22;29507;51.284;5.758;2022-09-14T01:40:51;14.80;99.90
43858;DHT22;29507;51.284;5.758;2022-09-14T01:43:30;14.80;99.90
43858;DHT22;29507;51.284;5.758;2022-09-14T01:46:13;14.80;99.90
43858;DHT22;29507;51.284;5.758;2022-09-14T01:48:44;14.80;99.90
43858;DHT22;29507;51.284;5.758;2022-09-14T01:51:16;14.80;99.90
43858;DHT22;29507;51.284;5.758;2022-09-14T01:53:51;14.80;99.90
43858;DHT22;29507;51.284;5.758;2022-09-14T01:56:24;14.80;99.90
43858;DHT22;29507;51.284;5.758;2022-09-14T01:59:03;14.80;99.90
43858;DHT22;29507;51.284;5.758;2022-09-14T02:01:38;14.80;99.90
43858;DHT22;29507;51.284;5.758;2022-09-14T02:04:08;14.80;99.90
43858;DHT22;29507;51.284;5.758;2022-09-14T02:06:35;14.90;99.90
43858;DHT22;29507;51.284;5.758;2022-09-14T02:09:03;14.90;99.90
43858;DHT22;29507;51.284;5.758;2022-09-14T02:11:29;14.80;99.90
43858;DHT22;29507;51.284;5.758;2022-09-14T02:13:55;14.80;99.90
43858;DHT22;29507;51.284;5.758;2022-09-14T02:16:22;14.80;99.90
43858;DHT22;29507;51.284;5.758;2022-09-14T02:18:49;14.80;99.90
43858;DHT22;29507;51.284;5.758;2022-09-14T02:21:19;14.70;99.90
43858;DHT22;29507;51.284;5.758;2022-09-14T02:23:46;14.70;99.90
43858;DHT22;29507;51.284;5.758;2022-09-14T02:26:14;14.70;99.90
43858;DHT22;29507;51.284;5.758;2022-09-14T02:28:40;14.70;99.90
43858;DHT22;29507;51.284;5.758;2022-09-14T02:33:39;14.70;99.90
43858;DHT22;29507;51.284;5.758;2022-09-14T02:36:22;14.70;99.90
43858;DHT22;29507;51.284;5.758;2022-09-14T02:39:01;14.80;99.90
43858;DHT22;29507;51.284;5.758;2022-09-14T02:41:41;14.80;99.90
43858;DHT22;29507;51.284;5.758;2022-09-14T02:44:27;14.80;99.90
43858;DHT22;29507;51.284;5.758;2022-09-14T02:47:26;14.80;99.90
43858;DHT22;29507;51.284;5.758;2022-09-14T02:52:58;14.80;99.90
43858;DHT22;29507;51.284;5.758;2022-09-14T02:55:29;14.80;99.90
43858;DHT22;29507;51.284;5.758;2022-09-14T02:58:08;14.80;99.90
43858;DHT22;29507;51.284;5.758;2022-09-14T03:00:40;14.80;99.90
43858;DHT22;29507;51.284;5.758;2022-09-14T03:03:08;14.80;99.90
43858;DHT22;29507;51.284;5.758;2022-09-14T03:05:34;14.80;99.90
43858;DHT22;29507;51.284;5.758;2022-09-14T03:08:00;14.80;99.90
43858;DHT22;29507;51.284;5.758;2022-09-14T03:10:26;14.80;99.90
43858;DHT22;29507;51.284;5.758;2022-09-14T03:12:52;14.70;99.90
43858;DHT22;29507;51.284;5.758;2022-09-14T03:15:18;14.70;99.90
43858;DHT22;29507;51.284;5.758;2022-09-14T03:17:46;14.60;99.90
43858;DHT22;29507;51.284;5.758;2022-09-14T03:20:16;14.60;99.90
43858;DHT22;29507;51.284;5.758;2022-09-14T03:22:41;14.60;99.90
43858;DHT22;29507;51.284;5.758;2022-09-14T03:25:07;14.60;99.90
43858;DHT22;29507;51.284;5.758;2022-09-14T03:27:33;14.70;99.90
43858;DHT22;29507;51.284;5.758;2022-09-14T03:29:58;14.70;99.90
43858;DHT22;29507;51.284;5.758;2022-09-14T03:32:24;14.70;99.90
43858;DHT22;29507;51.284;5.758;2022-09-14T03:34:49;14.70;99.90
43858;DHT22;29507;51.284;5.758;2022-09-14T03:37:15;14.60;99.90
43858;DHT22;29507;51.284;5.758;2022-09-14T03:39:41;14.70;99.90
43858;DHT22;29507;51.284;5.758;2022-09-14T03:42:07;14.60;99.90
43858;DHT22;29507;51.284;5.758;2022-09-14T03:44:32;14.70;99.90
43858;DHT22;29507;51.284;5.758;2022-09-14T03:46:58;14.60;99.90
43858;DHT22;29507;51.284;5.758;2022-09-14T03:49:23;14.60;99.90
43858;DHT22;29507;51.284;5.758;2022-09-14T03:51:49;14.60;99.90
43858;DHT22;29507;51.284;5.758;2022-09-14T03:54:15;14.50;99.90
43858;DHT22;29507;51.284;5.758;2022-09-14T03:56:40;14.50;99.90
43858;DHT22;29507;51.284;5.758;2022-09-14T03:59:08;14.50;99.90
43858;DHT22;29507;51.284;5.758;2022-09-14T04:01:34;14.50;99.90
43858;DHT22;29507;51.284;5.758;2022-09-14T04:04:00;14.40;99.90
43858;DHT22;29507;51.284;5.758;2022-09-14T04:06:26;14.30;99.90
43858;DHT22;29507;51.284;5.758;2022-09-14T04:08:51;14.30;99.90
43858;DHT22;29507;51.284;5.758;2022-09-14T04:11:21;14.20;99.90
43858;DHT22;29507;51.284;5.758;2022-09-14T04:13:47;14.20;99.90
43858;DHT22;29507;51.284;5.758;2022-09-14T04:16:14;14.10;99.90
43858;DHT22;29507;51.284;5.758;2022-09-14T04:18:40;14.20;99.90
43858;DHT22;29507;51.284;5.758;2022-09-14T04:21:08;14.10;99.90
43858;DHT22;29507;51.284;5.758;2022-09-14T04:23:35;14.10;99.90
43858;DHT22;29507;51.284;5.758;2022-09-14T04:26:00;14.10;99.90
43858;DHT22;29507;51.284;5.758;2022-09-14T04:28:26;14.10;99.90
43858;DHT22;29507;51.284;5.758;2022-09-14T04:30:57;14.10;99.90
43858;DHT22;29507;51.284;5.758;2022-09-14T04:33:22;14.10;99.90
43858;DHT22;29507;51.284;5.758;2022-09-14T04:35:56;14.00;99.90
43858;DHT22;29507;51.284;5.758;2022-09-14T04:38:22;14.00;99.90
43858;DHT22;29507;51.284;5.758;2022-09-14T04:40:48;14.00;99.90
43858;DHT22;29507;51.284;5.758;2022-09-14T04:43:13;14.00;99.90
43858;DHT22;29507;51.284;5.758;2022-09-14T04:45:39;14.10;99.90
43858;DHT22;29507;51.284;5.758;2022-09-14T04:48:05;14.00;99.90
43858;DHT22;29507;51.284;5.758;2022-09-14T04:50:31;14.00;99.90
43858;DHT22;29507;51.284;5.758;2022-09-14T04:52:57;14.00;99.90
43858;DHT22;29507;51.284;5.758;2022-09-14T04:55:22;14.00;99.90
43858;DHT22;29507;51.284;5.758;2022-09-14T04:57:49;14.00;99.90
43858;DHT22;29507;51.284;5.758;2022-09-14T05:00:15;14.00;99.90
43858;DHT22;29507;51.284;5.758;2022-09-14T05:02:41;14.00;99.90
43858;DHT22;29507;51.284;5.758;2022-09-14T05:05:07;14.00;99.90
43858;DHT22;29507;51.284;5.758;2022-09-14T05:07:33;14.00;99.90
43858;DHT22;29507;51.284;5.758;2022-09-14T05:09:58;14.10;99.90
43858;DHT22;29507;51.284;5.758;2022-09-14T05:12:24;14.00;99.90
43858;DHT22;29507;51.284;5.758;2022-09-14T05:14:49;14.00;99.90
43858;DHT22;29507;51.284;5.758;2022-09-14T05:17:16;14.00;99.90
43858;DHT22;29507;51.284;5.758;2022-09-14T05:19:41;14.00;99.90
43858;DHT22;29507;51.284;5.758;2022-09-14T05:22:07;14.00;99.90
43858;DHT22;29507;51.284;5.758;2022-09-14T05:24:32;13.90;99.90
43858;DHT22;29507;51.284;5.758;2022-09-14T05:26:58;13.90;99.90
43858;DHT22;29507;51.284;5.758;2022-09-14T05:29:24;13.80;99.90
43858;DHT22;29507;51.284;5.758;2022-09-14T05:31:49;13.80;99.90
43858;DHT22;29507;51.284;5.758;2022-09-14T05:34:15;13.80;99.90
43858;DHT22;29507;51.284;5.758;2022-09-14T05:36:41;13.80;99.90
43858;DHT22;29507;51.284;5.758;2022-09-14T05:39:07;13.80;99.90
43858;DHT22;29507;51.284;5.758;2022-09-14T05:41:33;13.70;99.90
43858;DHT22;29507;51.284;5.758;2022-09-14T05:43:59;13.70;99.90
43858;DHT22;29507;51.284;5.758;2022-09-14T05:46:24;13.70;99.90
43858;DHT22;29507;51.284;5.758;2022-09-14T05:48:50;13.70;99.90
43858;DHT22;29507;51.284;5.758;2022-09-14T05:51:24;13.70;99.90
43858;DHT22;29507;51.284;5.758;2022-09-14T05:53:55;13.60;99.90
43858;DHT22;29507;51.284;5.758;2022-09-14T05:56:22;13.70;99.90
43858;DHT22;29507;51.284;5.758;2022-09-14T05:58:49;13.70;99.90
43858;DHT22;29507;51.284;5.758;2022-09-14T06:01:16;13.70;99.90
43858;DHT22;29507;51.284;5.758;2022-09-14T06:03:42;13.70;99.90
43858;DHT22;29507;51.284;5.758;2022-09-14T06:06:10;13.70;99.90
43858;DHT22;29507;51.284;5.758;2022-09-14T06:08:36;13.70;99.90
43858;DHT22;29507;51.284;5.758;2022-09-14T06:11:09;13.70;99.90
43858;DHT22;29507;51.284;5.758;2022-09-14T06:13:36;13.70;99.90
43858;DHT22;29507;51.284;5.758;2022-09-14T06:16:03;13.70;99.90
43858;DHT22;29507;51.284;5.758;2022-09-14T06:18:32;13.60;99.90
43858;DHT22;29507;51.284;5.758;2022-09-14T06:20:57;13.70;99.90
43858;DHT22;29507;51.284;5.758;2022-09-14T06:23:23;13.70;99.90
43858;DHT22;29507;51.284;5.758;2022-09-14T06:25:52;13.70;99.90
43858;DHT22;29507;51.284;5.758;2022-09-14T06:28:18;13.70;99.90
43858;DHT22;29507;51.284;5.758;2022-09-14T06:30:44;13.70;99.90
43858;DHT22;29507;51.284;5.758;2022-09-14T06:33:09;13.70;99.90
43858;DHT22;29507;51.284;5.758;2022-09-14T06:35:35;13.70;99.90
43858;DHT22;29507;51.284;5.758;2022-09-14T06:38:00;13.80;99.90
43858;DHT22;29507;51.284;5.758;2022-09-14T06:40:26;13.70;99.90
43858;DHT22;29507;51.284;5.758;2022-09-14T06:42:52;13.80;99.90
43858;DHT22;29507;51.284;5.758;2022-09-14T06:45:18;13.80;99.90
43858;DHT22;29507;51.284;5.758;2022-09-14T06:47:44;13.90;99.90
43858;DHT22;29507;51.284;5.758;2022-09-14T06:50:09;13.80;99.90
43858;DHT22;29507;51.284;5.758;2022-09-14T06:52:35;13.90;99.90
43858;DHT22;29507;51.284;5.758;2022-09-14T06:55:01;13.80;99.90
43858;DHT22;29507;51.284;5.758;2022-09-14T06:57:27;13.90;99.90
43858;DHT22;29507;51.284;5.758;2022-09-14T06:59:52;13.90;99.90
43858;DHT22;29507;51.284;5.758;2022-09-14T07:02:18;13.90;99.90
43858;DHT22;29507;51.284;5.758;2022-09-14T07:04:43;13.90;99.90
43858;DHT22;29507;51.284;5.758;2022-09-14T07:07:09;13.80;99.90
43858;DHT22;29507;51.284;5.758;2022-09-14T07:09:35;13.80;99.90
43858;DHT22;29507;51.284;5.758;2022-09-14T07:12:01;13.80;99.90
43858;DHT22;29507;51.284;5.758;2022-09-14T07:14:26;13.80;99.90
43858;DHT22;29507;51.284;5.758;2022-09-14T07:16:52;13.80;99.90
43858;DHT22;29507;51.284;5.758;2022-09-14T07:19:18;13.80;99.90
43858;DHT22;29507;51.284;5.758;2022-09-14T07:21:43;13.80;99.90
43858;DHT22;29507;51.284;5.758;2022-09-14T07:24:11;13.80;99.90
43858;DHT22;29507;51.284;5.758;2022-09-14T07:26:38;13.80;99.90
43858;DHT22;29507;51.284;5.758;2022-09-14T07:29:06;13.80;99.90
43858;DHT22;29507;51.284;5.758;2022-09-14T07:31:43;13.90;99.90
43858;DHT22;29507;51.284;5.758;2022-09-14T07:34:10;13.90;99.90
43858;DHT22;29507;51.284;5.758;2022-09-14T07:36:36;13.90;99.90
43858;DHT22;29507;51.284;5.758;2022-09-14T07:39:07;14.00;99.90
43858;DHT22;29507;51.284;5.758;2022-09-14T07:41:34;14.00;99.90
43858;DHT22;29507;51.284;5.758;2022-09-14T07:44:02;14.00;99.90
43858;DHT22;29507;51.284;5.758;2022-09-14T07:46:30;14.00;99.90
43858;DHT22;29507;51.284;5.758;2022-09-14T07:49:00;14.00;99.90
43858;DHT22;29507;51.284;5.758;2022-09-14T07:51:28;14.00;99.90
43858;DHT22;29507;51.284;5.758;2022-09-14T07:53:54;14.10;99.90
43858;DHT22;29507;51.284;5.758;2022-09-14T07:56:20;14.10;99.90
43858;DHT22;29507;51.284;5.758;2022-09-14T07:58:46;14.10;99.90
43858;DHT22;29507;51.284;5.758;2022-09-14T08:01:14;14.10;99.90
43858;DHT22;29507;51.284;5.758;2022-09-14T08:03:41;14.10;99.90
43858;DHT22;29507;51.284;5.758;2022-09-14T08:06:16;14.20;99.90
43858;DHT22;29507;51.284;5.758;2022-09-14T08:08:44;14.20;99.90
43858;DHT22;29507;51.284;5.758;2022-09-14T08:11:13;14.20;99.90
43858;DHT22;29507;51.284;5.758;2022-09-14T08:13:41;14.20;99.90
43858;DHT22;29507;51.284;5.758;2022-09-14T08:16:08;14.20;99.90
43858;DHT22;29507;51.284;5.758;2022-09-14T08:18:34;14.10;99.90
43858;DHT22;29507;51.284;5.758;2022-09-14T08:21:27;14.20;99.90
43858;DHT22;29507;51.284;5.758;2022-09-14T08:23:54;14.20;99.90
43858;DHT22;29507;51.284;5.758;2022-09-14T08:26:23;14.10;99.90
43858;DHT22;29507;51.284;5.758;2022-09-14T08:28:50;14.20;99.90
43858;DHT22;29507;51.284;5.758;2022-09-14T08:31:21;14.20;99.90
43858;DHT22;29507;51.284;5.758;2022-09-14T08:33:54;14.10;99.90
43858;DHT22;29507;51.284;5.758;2022-09-14T08:36:21;14.10;99.90
43858;DHT22;29507;51.284;5.758;2022-09-14T08:38:47;14.10;99.90
43858;DHT22;29507;51.284;5.758;2022-09-14T08:41:51;14.10;99.90
43858;DHT22;29507;51.284;5.758;2022-09-14T08:47:25;14.20;99.90
43858;DHT22;29507;51.284;5.758;2022-09-14T08:49:56;14.20;99.90
43858;DHT22;29507;51.284;5.758;2022-09-14T08:52:33;14.20;99.90
43858;DHT22;29507;51.284;5.758;2022-09-14T08:55:13;14.10;99.90
43858;DHT22;29507;51.284;5.758;2022-09-14T08:57:44;14.10;99.90
43858;DHT22;29507;51.284;5.758;2022-09-14T09:00:15;14.00;99.90
43858;DHT22;29507;51.284;5.758;2022-09-14T09:06:05;13.90;99.90
43858;DHT22;29507;51.284;5.758;2022-09-14T09:08:51;13.90;99.90
43858;DHT22;29507;51.284;5.758;2022-09-14T09:11:25;13.90;99.90
43858;DHT22;29507;51.284;5.758;2022-09-14T09:13:53;13.90;99.90
43858;DHT22;29507;51.284;5.758;2022-09-14T09:16:22;13.80;99.90
43858;DHT22;29507;51.284;5.758;2022-09-14T09:18:53;13.90;99.90
43858;DHT22;29507;51.284;5.758;2022-09-14T09:21:29;13.90;99.90
43858;DHT22;29507;51.284;5.758;2022-09-14T09:24:09;13.80;99.90
43858;DHT22;29507;51.284;5.758;2022-09-14T09:26:41;13.70;99.90
43858;DHT22;29507;51.284;5.758;2022-09-14T09:29:08;13.60;99.90
43858;DHT22;29507;51.284;5.758;2022-09-14T09:31:44;13.60;99.90
43858;DHT22;29507;51.284;5.758;2022-09-14T09:34:13;13.60;99.90
43858;DHT22;29507;51.284;5.758;2022-09-14T09:36:43;13.50;99.90
43858;DHT22;29507;51.284;5.758;2022-09-14T09:39:09;13.60;99.90
43858;DHT22;29507;51.284;5.758;2022-09-14T09:45:03;13.70;99.90
43858;DHT22;29507;51.284;5.758;2022-09-14T09:47:39;13.60;99.90
43858;DHT22;29507;51.284;5.758;2022-09-14T09:50:21;13.60;99.90
43858;DHT22;29507;51.284;5.758;2022-09-14T09:52:52;13.60;99.90
43858;DHT22;29507;51.284;5.758;2022-09-14T09:55:32;13.60;99.90
43858;DHT22;29507;51.284;5.758;2022-09-14T09:58:26;13.60;99.90
43858;DHT22;29507;51.284;5.758;2022-09-14T10:00:59;13.60;99.90
43858;DHT22;29507;51.284;5.758;2022-09-14T10:03:36;13.50;99.90
43858;DHT22;29507;51.284;5.758;2022-09-14T10:06:07;13.50;99.90
43858;DHT22;29507;51.284;5.758;2022-09-14T10:08:41;13.50;99.90
43858;DHT22;29507;51.284;5.758;2022-09-14T10:11:33;13.50;99.90
43858;DHT22;29507;51.284;5.758;2022-09-14T10:14:04;13.50;99.90
43858;DHT22;29507;51.284;5.758;2022-09-14T10:16:42;13.50;99.90
43858;DHT22;29507;51.284;5.758;2022-09-14T10:19:18;13.50;99.90
43858;DHT22;29507;51.284;5.758;2022-09-14T10:22:14;13.60;99.90
43858;DHT22;29507;51.284;5.758;2022-09-14T10:24:54;13.60;99.90
43858;DHT22;29507;51.284;5.758;2022-09-14T10:27:44;13.60;99.90
43858;DHT22;29507;51.284;5.758;2022-09-14T10:30:39;13.60;99.90
43858;DHT22;29507;51.284;5.758;2022-09-14T10:33:11;13.50;99.90
43858;DHT22;29507;51.284;5.758;2022-09-14T10:36:02;13.50;99.90
43858;DHT22;29507;51.284;5.758;2022-09-14T10:38:52;13.50;99.90
43858;DHT22;29507;51.284;5.758;2022-09-14T10:41:44;13.60;99.90
43858;DHT22;29507;51.284;5.758;2022-09-14T10:50:25;13.50;99.90
43858;DHT22;29507;51.284;5.758;2022-09-14T10:56:05;13.50;99.90
43858;DHT22;29507;51.284;5.758;2022-09-14T11:04:13;13.40;99.90
43858;DHT22;29507;51.284;5.758;2022-09-14T11:07:00;13.40;99.90
43858;DHT22;29507;51.284;5.758;2022-09-14T11:12:29;13.40;99.90
43858;DHT22;29507;51.284;5.758;2022-09-14T11:15:16;13.40;99.90
43858;DHT22;29507;51.284;5.758;2022-09-14T11:26:19;13.50;99.90
43858;DHT22;29507;51.284;5.758;2022-09-14T11:28:44;13.60;99.90
43858;DHT22;29507;51.284;5.758;2022-09-14T11:31:22;13.70;99.90
43858;DHT22;29507;51.284;5.758;2022-09-14T11:34:14;13.80;99.90
43858;DHT22;29507;51.284;5.758;2022-09-14T11:36:46;13.90;99.90
43858;DHT22;29507;51.284;5.758;2022-09-14T11:39:19;13.90;99.90
43858;DHT22;29507;51.284;5.758;2022-09-14T11:41:52;13.90;99.90
43858;DHT22;29507;51.284;5.758;2022-09-14T11:44:39;14.00;99.90
43858;DHT22;29507;51.284;5.758;2022-09-14T11:47:14;14.00;99.90
43858;DHT22;29507;51.284;5.758;2022-09-14T11:52:19;13.90;99.90
43858;DHT22;29507;51.284;5.758;2022-09-14T11:54:46;14.00;99.90
43858;DHT22;29507;51.284;5.758;2022-09-14T11:57:32;14.10;99.90
43858;DHT22;29507;51.284;5.758;2022-09-14T12:00:02;14.10;99.90
43858;DHT22;29507;51.284;5.758;2022-09-14T12:12:39;14.20;99.90
43858;DHT22;29507;51.284;5.758;2022-09-14T12:17:41;14.20;99.90
43858;DHT22;29507;51.284;5.758;2022-09-14T12:22:44;14.10;99.90
43858;DHT22;29507;51.284;5.758;2022-09-14T12:25:18;14.10;99.90
43858;DHT22;29507;51.284;5.758;2022-09-14T12:27:47;14.20;99.90
43858;DHT22;29507;51.284;5.758;2022-09-14T12:32:58;14.40;99.90
43858;DHT22;29507;51.284;5.758;2022-09-14T12:37:59;14.70;99.90
43858;DHT22;29507;51.284;5.758;2022-09-14T12:40:45;14.90;99.90
43858;DHT22;29507;51.284;5.758;2022-09-14T12:51:27;15.20;99.90
43858;DHT22;29507;51.284;5.758;2022-09-14T13:06:53;14.60;99.90
43858;DHT22;29507;51.284;5.758;2022-09-14T13:09:25;14.70;99.90
43858;DHT22;29507;51.284;5.758;2022-09-14T13:12:06;14.60;99.90
43858;DHT22;29507;51.284;5.758;2022-09-14T13:17:14;14.90;99.90
43858;DHT22;29507;51.284;5.758;2022-09-14T13:19:41;15.00;99.90
43858;DHT22;29507;51.284;5.758;2022-09-14T13:22:27;14.90;99.90
43858;DHT22;29507;51.284;5.758;2022-09-14T13:24:57;15.00;99.90
43858;DHT22;29507;51.284;5.758;2022-09-14T13:32:41;15.10;99.90
43858;DHT22;29507;51.284;5.758;2022-09-14T13:35:20;15.20;99.90
43858;DHT22;29507;51.284;5.758;2022-09-14T13:37:49;15.20;99.90
43858;DHT22;29507;51.284;5.758;2022-09-14T13:40:15;15.30;99.90
43858;DHT22;29507;51.284;5.758;2022-09-14T13:42:41;15.50;99.90
43858;DHT22;29507;51.284;5.758;2022-09-14T13:45:11;15.60;99.90
43858;DHT22;29507;51.284;5.758;2022-09-14T13:47:37;15.80;99.90
43858;DHT22;29507;51.284;5.758;2022-09-14T13:50:05;15.90;99.90
43858;DHT22;29507;51.284;5.758;2022-09-14T13:52:39;15.90;99.90
43858;DHT22;29507;51.284;5.758;2022-09-14T13:58:05;15.90;99.90
43858;DHT22;29507;51.284;5.758;2022-09-14T14:00:43;15.70;99.90
43858;DHT22;29507;51.284;5.758;2022-09-14T14:03:27;15.60;99.90
43858;DHT22;29507;51.284;5.758;2022-09-14T14:05:53;15.60;99.90
43858;DHT22;29507;51.284;5.758;2022-09-14T14:08:29;15.60;99.90
43858;DHT22;29507;51.284;5.758;2022-09-14T14:10:57;15.60;99.90
43858;DHT22;29507;51.284;5.758;2022-09-14T14:13:24;15.60;99.90
43858;DHT22;29507;51.284;5.758;2022-09-14T14:15:50;15.70;99.90
43858;DHT22;29507;51.284;5.758;2022-09-14T14:18:39;15.80;99.90
43858;DHT22;29507;51.284;5.758;2022-09-14T14:21:13;15.90;99.90
43858;DHT22;29507;51.284;5.758;2022-09-14T14:23:39;16.10;99.90
43858;DHT22;29507;51.284;5.758;2022-09-14T14:26:09;16.10;99.90
43858;DHT22;29507;51.284;5.758;2022-09-14T14:28:35;16.20;99.90
43858;DHT22;29507;51.284;5.758;2022-09-14T14:31:01;16.20;99.90
43858;DHT22;29507;51.284;5.758;2022-09-14T14:33:27;16.30;99.90
43858;DHT22;29507;51.284;5.758;2022-09-14T14:35:54;16.30;99.90
43858;DHT22;29507;51.284;5.758;2022-09-14T14:38:22;16.30;99.90
43858;DHT22;29507;51.284;5.758;2022-09-14T14:40:48;16.40;99.90
43858;DHT22;29507;51.284;5.758;2022-09-14T14:43:18;16.50;99.90
43858;DHT22;29507;51.284;5.758;2022-09-14T14:45:44;16.50;99.90
43858;DHT22;29507;51.284;5.758;2022-09-14T14:48:10;16.50;99.90
43858;DHT22;29507;51.284;5.758;2022-09-14T14:50:37;16.40;99.90
43858;DHT22;29507;51.284;5.758;2022-09-14T14:53:03;16.40;99.90
43858;DHT22;29507;51.284;5.758;2022-09-14T14:55:30;16.40;99.90
43858;DHT22;29507;51.284;5.758;2022-09-14T14:57:58;16.40;99.90
43858;DHT22;29507;51.284;5.758;2022-09-14T15:00:30;16.30;99.90
43858;DHT22;29507;51.284;5.758;2022-09-14T15:02:56;16.10;99.90
43858;DHT22;29507;51.284;5.758;2022-09-14T15:05:22;16.10;99.90
43858;DHT22;29507;51.284;5.758;2022-09-14T15:07:48;16.00;99.90
43858;DHT22;29507;51.284;5.758;2022-09-14T15:10:17;16.00;99.90
43858;DHT22;29507;51.284;5.758;2022-09-14T15:12:43;15.90;99.90
43858;DHT22;29507;51.284;5.758;2022-09-14T15:15:14;15.90;99.90
43858;DHT22;29507;51.284;5.758;2022-09-14T15:17:41;15.80;99.90
43858;DHT22;29507;51.284;5.758;2022-09-14T15:20:07;15.80;99.90
43858;DHT22;29507;51.284;5.758;2022-09-14T15:22:33;15.60;99.90
43858;DHT22;29507;51.284;5.758;2022-09-14T15:24:59;15.50;99.90
43858;DHT22;29507;51.284;5.758;2022-09-14T15:27:25;15.50;99.90
43858;DHT22;29507;51.284;5.758;2022-09-14T15:29:50;15.50;99.90
43858;DHT22;29507;51.284;5.758;2022-09-14T15:32:16;15.40;99.90
43858;DHT22;29507;51.284;5.758;2022-09-14T15:34:42;15.30;99.90
43858;DHT22;29507;51.284;5.758;2022-09-14T15:37:08;15.20;99.90
43858;DHT22;29507;51.284;5.758;2022-09-14T15:39:34;15.20;99.90
43858;DHT22;29507;51.284;5.758;2022-09-14T15:41:59;15.20;99.90
43858;DHT22;29507;51.284;5.758;2022-09-14T15:44:25;15.10;99.90
43858;DHT22;29507;51.284;5.758;2022-09-14T15:46:51;15.10;99.90
43858;DHT22;29507;51.284;5.758;2022-09-14T15:49:19;15.00;99.90
43858;DHT22;29507;51.284;5.758;2022-09-14T15:51:47;15.00;99.90
43858;DHT22;29507;51.284;5.758;2022-09-14T15:54:14;15.00;99.90
43858;DHT22;29507;51.284;5.758;2022-09-14T15:56:41;15.00;99.90
43858;DHT22;29507;51.284;5.758;2022-09-14T15:59:07;15.00;99.90
43858;DHT22;29507;51.284;5.758;2022-09-14T16:01:33;15.00;99.90
43858;DHT22;29507;51.284;5.758;2022-09-14T16:04:02;14.90;99.90
43858;DHT22;29507;51.284;5.758;2022-09-14T16:06:28;14.90;99.90
43858;DHT22;29507;51.284;5.758;2022-09-14T16:08:54;14.90;99.90
43858;DHT22;29507;51.284;5.758;2022-09-14T16:11:20;15.00;99.90
43858;DHT22;29507;51.284;5.758;2022-09-14T16:13:47;15.00;99.90
43858;DHT22;29507;51.284;5.758;2022-09-14T16:16:15;15.00;99.90
43858;DHT22;29507;51.284;5.758;2022-09-14T16:18:41;14.90;99.90
43858;DHT22;29507;51.284;5.758;2022-09-14T16:21:09;15.00;99.90
43858;DHT22;29507;51.284;5.758;2022-09-14T16:23:39;15.00;99.90
43858;DHT22;29507;51.284;5.758;2022-09-14T16:26:10;15.00;99.90
43858;DHT22;29507;51.284;5.758;2022-09-14T16:28:37;15.00;99.90
43858;DHT22;29507;51.284;5.758;2022-09-14T16:31:13;15.00;99.90
43858;DHT22;29507;51.284;5.758;2022-09-14T16:33:41;15.00;99.90
43858;DHT22;29507;51.284;5.758;2022-09-14T16:36:10;15.00;99.90
43858;DHT22;29507;51.284;5.758;2022-09-14T16:38:37;15.00;99.90
43858;DHT22;29507;51.284;5.758;2022-09-14T16:41:04;15.10;99.90
43858;DHT22;29507;51.284;5.758;2022-09-14T16:43:30;15.00;99.90
43858;DHT22;29507;51.284;5.758;2022-09-14T16:46:15;15.00;99.90
43858;DHT22;29507;51.284;5.758;2022-09-14T16:48:43;15.00;99.90
43858;DHT22;29507;51.284;5.758;2022-09-14T16:51:09;15.00;99.90
43858;DHT22;29507;51.284;5.758;2022-09-14T16:53:37;14.90;99.90
43858;DHT22;29507;51.284;5.758;2022-09-14T16:56:10;14.90;99.90
43858;DHT22;29507;51.284;5.758;2022-09-14T16:58:36;14.90;99.90
43858;DHT22;29507;51.284;5.758;2022-09-14T17:01:04;14.90;99.90
43858;DHT22;29507;51.284;5.758;2022-09-14T17:03:32;15.00;99.90
43858;DHT22;29507;51.284;5.758;2022-09-14T17:06:02;15.00;99.90
43858;DHT22;29507;51.284;5.758;2022-09-14T17:08:29;15.00;99.90
43858;DHT22;29507;51.284;5.758;2022-09-14T17:10:55;14.90;99.90
43858;DHT22;29507;51.284;5.758;2022-09-14T17:13:21;14.80;99.90
43858;DHT22;29507;51.284;5.758;2022-09-14T17:15:47;14.80;99.90
43858;DHT22;29507;51.284;5.758;2022-09-14T17:18:13;14.80;99.90
43858;DHT22;29507;51.284;5.758;2022-09-14T17:20:38;14.80;99.90
43858;DHT22;29507;51.284;5.758;2022-09-14T17:23:04;14.70;99.90
43858;DHT22;29507;51.284;5.758;2022-09-14T17:25:31;14.80;99.90
43858;DHT22;29507;51.284;5.758;2022-09-14T17:27:57;14.70;99.90
43858;DHT22;29507;51.284;5.758;2022-09-14T17:30:23;14.70;99.90
43858;DHT22;29507;51.284;5.758;2022-09-14T17:32:49;14.70;99.90
43858;DHT22;29507;51.284;5.758;2022-09-14T17:35:14;14.60;99.90
43858;DHT22;29507;51.284;5.758;2022-09-14T17:37:40;14.60;99.90